Latest Coastal Weather Observations for Legendre Island

IDW60701

Issued at 7:52 pm WST Saturday 4 July 2015 (issued every 10 minutes, with the page automatically refreshed every 10 minutes)

About coastal observations | Map of coastal stations | Coastal observations for WA | Marine services | Other Formats
Station Details ID: 004095 Name: LEGENDRE ISLAND Lat: -20.36 Lon: 116.84 Height: 29.0 m
Data from the previous 72 hours. | See also: Recent months for locations in Western Australia
Date/Time
WST
Temp

°C
Wind Pressure Rain
since 9am
mm
Weather Cloud Vis
km
Sea
Height
m
Swell
Dir
 
Speed
knots
Gust
knots
hPa Trend Height
m
Period
s
Dir
04/07:30pm 22.7 NNE 4 5 1017.6 - - - - - - - - -
04/07:00pm 22.7 NNE 3 4 1017.4 - - - - - - - - -
04/06:30pm 22.9 NNE 4 5 1017.2 - - - - - - - - -
04/06:00pm 23.0 NNE 5 6 1017.0 - - - - - - - - -
04/05:30pm 23.6 NNE 5 5 1016.9 - - - - - - - - -
04/05:00pm 24.4 NNE 3 4 1016.9 - - - - - - - - -
04/04:30pm 24.9 NNE 3 4 1016.9 - - - - - - - - -
04/04:00pm 24.9 NE 4 5 1017.1 - - - - - - - - -
04/03:30pm 25.8 ENE 4 5 1017.2 - - - - - - - - -
04/03:00pm 25.7 ENE 6 7 1017.3 - - - - - - - - -
04/02:30pm 25.6 E 8 9 1017.4 - - - - - - - - -
04/02:00pm 25.7 E 10 12 1017.6 - - - - - - - - -
04/01:30pm 25.7 E 12 13 1017.7 - - - - - - - - -
04/01:00pm 26.0 E 11 12 1018.1 - - - - - - - - -
04/12:30pm 25.6 E 11 12 1018.6 - - - - - - - - -
04/12:00pm 25.1 ESE 11 13 1019.2 - - - - - - - - -
04/11:30am 25.1 ESE 11 13 1019.5 - - - - - - - - -
04/11:00am 25.1 ESE 12 13 1019.9 - - - - - - - - -
04/10:30am 24.4 ESE 12 14 1020.1 - - - - - - - - -
04/10:00am 24.2 ESE 13 15 1020.3 - - - - - - - - -
04/09:30am 23.5 ESE 14 17 1020.3 - - - - - - - - -
04/09:00am 22.9 ESE 12 13 1020.3 - - - - - - - - -
04/08:30am 22.1 SE 11 13 1020.0 - - - - - - - - -
04/08:00am 21.2 SE 10 13 1019.7 - - - - - - - - -
04/07:30am 20.9 ESE 10 13 1019.4 - - - - - - - - -
04/07:00am 19.1 SE 12 14 1019.0 - - - - - - - - -
04/06:30am 18.3 SE 10 12 1018.7 - - - - - - - - -
04/06:00am 18.7 SE 12 13 1018.5 - - - - - - - - -
04/05:30am 19.4 SE 10 13 1018.3 - - - - - - - - -
04/05:00am 18.7 SE 11 13 1018.1 - - - - - - - - -
04/04:30am 18.7 SE 11 13 1018.1 - - - - - - - - -
04/04:00am 19.1 SSE 11 11 1018.1 - - - - - - - - -
04/03:30am 18.9 SSE 11 11 1018.1 - - - - - - - - -
04/03:00am 19.1 S 8 9 1018.3 - - - - - - - - -
04/02:30am 19.4 S 7 8 1018.4 - - - - - - - - -
04/02:00am 18.9 S 7 8 1018.6 - - - - - - - - -
04/01:30am 19.0 S 8 9 1018.6 - - - - - - - - -
04/01:00am 19.5 SSW 8 9 1018.7 - - - - - - - - -
04/12:30am 19.6 SSW 9 10 1018.7 - - - - - - - - -
04/12:00am 19.5 S 8 9 1018.8 - - - - - - - - -
 
Date/Time
WST
Temp

°C
Wind Pressure Rain
since 9am
mm
Weather Cloud Vis
km
Sea
Height
m
Swell
Dir
 
Speed
knots
Gust
knots
hPa Trend Height
m
Period
s
Dir
03/11:30pm 19.7 S 8 9 1018.9 - - - - - - - - -
03/11:00pm 19.6 SSW 9 9 1019.2 - - - - - - - - -
03/10:30pm 19.6 SSW 8 9 1019.3 - - - - - - - - -
03/10:00pm 20.7 SE 8 9 1019.2 - - - - - - - - -
03/09:30pm 22.4 ESE 7 7 1019.2 - - - - - - - - -
03/09:00pm 21.1 ESE 6 7 1019.1 - - - - - - - - -
03/08:30pm 22.9 ESE 7 8 1019.0 - - - - - - - - -
03/08:00pm 22.7 ESE 6 7 1018.9 - - - - - - - - -
03/07:30pm 23.2 ESE 6 7 1018.7 - - - - - - - - -
03/07:00pm 23.6 ESE 7 9 1018.4 - - - - - - - - -
03/06:30pm 23.8 ESE 7 8 1018.2 - - - - - - - - -
03/06:00pm 23.7 ESE 6 7 1017.9 - - - - - - - - -
03/05:30pm 24.2 E 6 7 1017.8 - - - - - - - - -
03/05:00pm 24.8 ENE 5 6 1017.7 - - - - - - - - -
03/04:30pm 25.4 E 6 8 1017.5 - - - - - - - - -
03/04:00pm 25.7 E 6 7 1017.4 - - - - - - - - -
03/03:30pm 26.0 E 8 9 1017.3 - - - - - - - - -
03/03:00pm 26.5 ESE 9 11 1017.2 - - - - - - - - -
03/02:30pm 26.4 ESE 11 13 1017.5 - - - - - - - - -
03/02:00pm 26.8 ESE 11 13 1017.7 - - - - - - - - -
03/01:30pm 26.7 ESE 11 13 1018.2 - - - - - - - - -
03/01:00pm 26.4 ESE 11 13 1018.7 - - - - - - - - -
03/12:30pm 25.7 E 12 13 1019.1 - - - - - - - - -
03/12:00pm 25.4 E 11 13 1019.7 - - - - - - - - -
03/11:30am 25.2 E 12 14 1020.1 - - - - - - - - -
03/11:00am 24.8 E 13 15 1020.3 - - - - - - - - -
03/10:30am 24.9 ESE 14 17 1020.6 - - - - - - - - -
03/10:00am 24.6 ESE 14 18 1020.9 - - - - - - - - -
03/09:30am 24.6 ESE 13 16 1020.8 - - - - - - - - -
03/09:00am 24.0 E 14 16 1020.4 - - - - - - - - -
03/08:30am 23.2 ESE 12 15 1020.5 - - - - - - - - -
03/08:00am 21.7 SE 14 17 1020.2 - - - - - - - - -
03/07:30am 21.3 ESE 11 15 1020.0 - - - - - - - - -
03/07:00am 19.8 ESE 10 12 1019.6 - - - - - - - - -
03/06:30am 19.1 SE 11 13 1019.1 - - - - - - - - -
03/06:00am 19.2 SE 11 15 1018.9 - - - - - - - - -
03/05:30am 19.6 SSE 13 15 1018.6 - - - - - - - - -
03/05:00am 20.0 SSE 11 13 1018.5 - - - - - - - - -
03/04:30am 20.2 SSE 12 13 1018.2 - - - - - - - - -
03/04:00am 20.0 S 11 13 1018.4 - - - - - - - - -
03/03:30am 20.1 S 10 12 1018.4 - - - - - - - - -
03/03:00am 20.1 S 10 11 1018.6 - - - - - - - - -
03/02:30am 20.6 SSE 11 14 1018.8 - - - - - - - - -
03/02:00am 19.7 SSE 9 13 1019.1 - - - - - - - - -
03/01:30am 19.1 S 11 13 1019.1 - - - - - - - - -
03/01:00am 19.0 S 12 13 1019.4 - - - - - - - - -
03/12:30am 19.9 SSE 9 10 1019.7 - - - - - - - - -
03/12:00am 20.0 SSE 9 11 1019.9 - - - - - - - - -
 
Date/Time
WST
Temp

°C
Wind Pressure Rain
since 9am
mm
Weather Cloud Vis
km
Sea
Height
m
Swell
Dir
 
Speed
knots
Gust
knots
hPa Trend Height
m
Period
s
Dir
02/11:30pm 20.6 SSE 4 7 1020.0 - - - - - - - - -
02/11:00pm 22.0 S 2 4 1020.0 - - - - - - - - -
02/10:30pm 21.8 S 1 3 1020.1 - - - - - - - - -
02/10:00pm 22.8 CALM 0 0 1020.3 - - - - - - - - -
02/09:30pm 22.6 CALM 0 1 1020.2 - - - - - - - - -
02/09:00pm 22.8 NE 1 2 1020.3 - - - - - - - - -
02/08:30pm 22.9 ESE 1 2 1020.1 - - - - - - - - -
02/08:00pm 22.7 NE 3 3 1019.9 - - - - - - - - -
02/07:30pm 22.9 NE 4 5 1019.7 - - - - - - - - -
02/07:00pm 23.1 NE 5 6 1019.3 - - - - - - - - -
02/06:30pm 23.4 NNE 5 6 1019.1 - - - - - - - - -
02/06:00pm 23.2 ENE 4 5 1019.1 - - - - - - - - -
02/05:30pm 23.6 ENE 5 5 1018.9 - - - - - - - - -
02/05:00pm 24.2 ENE 6 6 1018.9 - - - - - - - - -
02/04:30pm 24.7 ENE 7 8 1018.9 - - - - - - - - -
02/04:00pm 25.2 ENE 9 10 1018.8 - - - - - - - - -
02/03:30pm 25.5 ENE 10 11 1018.7 - - - - - - - - -
02/03:00pm 25.2 ENE 11 12 1018.8 - - - - - - - - -
02/02:30pm 25.6 ENE 12 14 1018.8 - - - - - - - - -
02/02:00pm 25.9 ENE 12 14 1019.1 - - - - - - - - -
02/01:30pm 25.7 E 9 11 1019.4 - - - - - - - - -
02/01:00pm 25.6 ESE 8 9 1019.8 - - - - - - - - -
02/12:30pm 25.5 ESE 11 13 1020.1 - - - - - - - - -
02/12:00pm 25.4 E 12 15 1020.4 - - - - - - - - -
02/11:30am 25.1 E 15 17 1021.0 - - - - - - - - -
02/11:00am 24.4 ESE 12 14 1021.2 - - - - - - - - -
02/10:30am 24.3 ESE 13 16 1021.5 - - - - - - - - -
02/10:00am 23.8 ESE 14 17 1021.6 - - - - - - - - -
02/09:30am 23.7 ESE 15 19 1021.7 - - - - - - - - -
02/09:00am 23.0 ESE 16 19 1021.5 - - - - - - - - -
02/08:30am 22.3 ESE 11 14 1021.4 - - - - - - - - -
02/08:00am 21.2 ESE 13 16 1021.0 - - - - - - - - -
02/07:30am 19.7 SE 13 15 1020.5 - - - - - - - - -
02/07:00am 18.8 SSE 13 15 1020.1 - - - - - - - - -
02/06:30am 19.1 SSE 12 15 1020.0 - - - - - - - - -
02/06:00am 18.8 SSE 14 16 1019.5 - - - - - - - - -
02/05:30am 19.5 SSE 13 16 1019.5 - - - - - - - - -
02/05:00am 17.5 SSW 8 9 1019.4 - - - - - - - - -
02/04:30am 17.7 SSW 7 9 1019.5 - - - - - - - - -
02/04:00am 18.1 S 6 7 1019.6 - - - - - - - - -
02/03:30am 18.2 S 7 8 1019.6 - - - - - - - - -
02/03:00am 18.1 S 8 10 1019.6 - - - - - - - - -
02/02:30am 18.6 S 7 7 1019.8 - - - - - - - - -
02/02:00am 18.5 S 7 10 1019.9 - - - - - - - - -
02/01:30am 18.5 S 8 9 1020.0 - - - - - - - - -
02/01:00am 18.2 S 7 9 1020.3 - - - - - - - - -
02/12:30am 19.0 S 7 8 1020.5 - - - - - - - - -
02/12:00am 19.9 S 4 6 1020.8 - - - - - - - - -
 
Date/Time
WST
Temp

°C
Wind Pressure Rain
since 9am
mm
Weather Cloud Vis
km
Sea
Height
m
Swell
Dir
 
Speed
knots
Gust
knots
hPa Trend Height
m
Period
s
Dir
01/11:30pm 19.5 S 5 6 1020.9 - - - - - - - - -
01/11:00pm 19.5 SSE 5 9 1021.1 - - - - - - - - -
01/10:30pm 21.0 S 2 7 1021.2 - - - - - - - - -
01/10:00pm 21.8 CALM 0 0 1021.2 - - - - - - - - -
01/09:30pm 20.8 S 2 3 1021.1 - - - - - - - - -
01/09:00pm 22.0 W 1 1 1021.0 - - - - - - - - -
01/08:30pm 22.5 N 3 3 1020.8 - - - - - - - - -
01/08:00pm 22.5 N 3 3 1020.6 - - - - - - - - -

Other Formats:

Comma delimited format used in spreadsheet applications
http://www.bom.gov.au/fwo/IDW60701/IDW60701.94307.axf

JavaScript Object Notation format (JSON) in row-major order
http://www.bom.gov.au/fwo/IDW60701/IDW60701.94307.json